createdAt,value
2018-08-16T00:00:23.970Z,21.40
2018-08-16T00:02:52.090Z,21.40
2018-08-16T00:05:20.211Z,21.30
2018-08-16T00:07:48.313Z,21.30
2018-08-16T00:10:17.469Z,21.30
2018-08-16T00:12:46.754Z,21.30
2018-08-16T00:15:16.029Z,21.30
2018-08-16T00:17:44.150Z,21.20
2018-08-16T00:20:12.611Z,21.20
2018-08-16T00:22:40.756Z,21.20
2018-08-16T00:25:09.630Z,21.10
2018-08-16T00:27:37.815Z,21.10
2018-08-16T00:30:08.880Z,21.10
2018-08-16T00:32:36.979Z,21.10
2018-08-16T00:35:05.209Z,21.00
2018-08-16T00:37:33.362Z,21.00
2018-08-16T00:40:01.487Z,21.00
2018-08-16T00:42:33.502Z,20.90
2018-08-16T00:45:02.182Z,20.90
2018-08-16T00:47:30.787Z,20.90
2018-08-16T00:49:58.881Z,20.90
2018-08-16T00:52:26.991Z,20.90
2018-08-16T00:54:55.102Z,20.90
2018-08-16T00:57:23.186Z,20.90
2018-08-16T00:59:51.289Z,20.80
2018-08-16T01:02:19.362Z,20.80
2018-08-16T01:04:47.472Z,20.80
2018-08-16T01:07:15.577Z,20.80
2018-08-16T01:09:43.749Z,20.70
2018-08-16T01:12:11.870Z,20.70
2018-08-16T01:14:40.009Z,20.70
2018-08-16T01:17:08.404Z,20.70
2018-08-16T01:19:36.519Z,20.70
2018-08-16T01:22:04.621Z,20.60
2018-08-16T01:24:32.738Z,20.60
2018-08-16T01:27:00.850Z,20.60
2018-08-16T01:29:28.965Z,20.50
2018-08-16T01:31:57.089Z,20.50
2018-08-16T01:34:25.203Z,20.50
2018-08-16T01:36:53.330Z,20.50
2018-08-16T01:39:21.435Z,20.50
2018-08-16T01:41:49.526Z,20.40
2018-08-16T01:44:17.631Z,20.40
2018-08-16T01:46:45.753Z,20.40
2018-08-16T01:49:27.778Z,20.40
2018-08-16T01:51:56.159Z,20.40
2018-08-16T01:54:24.396Z,20.30
2018-08-16T01:56:52.698Z,20.30
2018-08-16T01:59:21.080Z,20.30
2018-08-16T02:01:49.612Z,20.20
2018-08-16T02:04:17.847Z,20.20
2018-08-16T02:06:46.106Z,20.20
2018-08-16T02:09:14.191Z,20.20
2018-08-16T02:11:42.285Z,20.10
2018-08-16T02:14:10.440Z,20.10
2018-08-16T02:16:39.105Z,20.10
2018-08-16T02:19:07.211Z,20.10
2018-08-16T02:21:35.771Z,20.10
2018-08-16T02:24:04.158Z,19.90
2018-08-16T02:26:32.446Z,19.90
2018-08-16T02:29:00.715Z,19.90
2018-08-16T02:31:28.792Z,19.90
2018-08-16T02:33:56.963Z,20.00
2018-08-16T02:36:25.566Z,20.00
2018-08-16T02:38:53.687Z,20.00
2018-08-16T02:41:21.819Z,20.00
2018-08-16T02:43:49.963Z,19.90
2018-08-16T02:46:18.240Z,19.90
2018-08-16T02:48:46.380Z,19.90
2018-08-16T02:51:14.693Z,19.90
2018-08-16T02:53:42.787Z,19.90
2018-08-16T02:56:10.922Z,19.80
2018-08-16T02:58:39.006Z,19.80
2018-08-16T03:01:07.103Z,19.80
2018-08-16T03:03:35.216Z,19.80
2018-08-16T03:06:03.361Z,19.80
2018-08-16T03:08:31.407Z,19.80
2018-08-16T03:10:59.524Z,19.80
2018-08-16T03:13:27.658Z,19.60
2018-08-16T03:15:55.800Z,19.60
2018-08-16T03:18:23.943Z,19.60
2018-08-16T03:20:52.046Z,19.70
2018-08-16T03:23:20.171Z,19.70
2018-08-16T03:25:48.290Z,19.70
2018-08-16T03:28:16.407Z,19.70
2018-08-16T03:30:44.534Z,19.70
2018-08-16T03:33:12.631Z,19.70
2018-08-16T03:35:40.888Z,19.60
2018-08-16T03:38:09.053Z,19.60
2018-08-16T03:40:37.098Z,19.60
2018-08-16T03:43:05.202Z,19.60
2018-08-16T03:45:33.303Z,19.60
2018-08-16T03:48:01.495Z,19.60
2018-08-16T03:50:29.542Z,19.60
2018-08-16T03:52:57.646Z,19.50
2018-08-16T03:55:25.742Z,19.50
2018-08-16T03:57:53.840Z,19.50
2018-08-16T04:00:21.985Z,19.50
2018-08-16T04:02:50.082Z,19.40
2018-08-16T04:05:18.234Z,19.40
2018-08-16T04:07:46.347Z,19.40
2018-08-16T04:10:14.435Z,19.40
2018-08-16T04:12:42.571Z,19.40
2018-08-16T04:15:10.723Z,19.40
2018-08-16T04:17:38.894Z,19.40
2018-08-16T04:20:07.173Z,19.40
2018-08-16T04:22:35.888Z,19.30
2018-08-16T04:25:04.666Z,19.30
2018-08-16T04:27:32.821Z,19.30
2018-08-16T04:30:00.995Z,19.30
2018-08-16T04:32:29.107Z,19.30
2018-08-16T04:34:57.260Z,19.30
2018-08-16T04:37:25.339Z,19.20
2018-08-16T04:39:53.440Z,19.20
2018-08-16T04:42:21.602Z,19.20
2018-08-16T04:44:49.727Z,19.20
2018-08-16T04:47:17.818Z,19.20
2018-08-16T04:49:45.914Z,19.20
2018-08-16T04:52:14.015Z,19.10
2018-08-16T04:54:42.122Z,19.10
2018-08-16T04:57:10.201Z,19.10
2018-08-16T04:59:38.315Z,19.10
2018-08-16T05:02:06.574Z,19.10
2018-08-16T05:04:34.680Z,19.10
2018-08-16T05:07:02.813Z,19.10
2018-08-16T05:09:30.911Z,19.10
2018-08-16T05:12:05.314Z,19.10
2018-08-16T05:14:33.455Z,19.10
2018-08-16T05:17:01.645Z,19.20
2018-08-16T05:19:29.783Z,19.10
2018-08-16T05:21:58.028Z,19.20
2018-08-16T05:24:26.150Z,19.20
2018-08-16T05:26:54.259Z,22.00
2018-08-16T05:29:22.347Z,19.20
2018-08-16T05:31:50.455Z,19.20
2018-08-16T05:34:18.575Z,19.20
2018-08-16T05:36:46.730Z,19.20
2018-08-16T05:39:14.835Z,19.20
2018-08-16T05:41:43.048Z,19.30
2018-08-16T05:44:11.156Z,19.30
2018-08-16T05:46:39.243Z,19.30
2018-08-16T05:49:07.328Z,19.40
2018-08-16T05:51:35.382Z,19.40
2018-08-16T05:54:03.473Z,19.40
2018-08-16T05:56:31.549Z,19.40
2018-08-16T05:58:59.621Z,19.40
2018-08-16T06:01:27.744Z,19.50
2018-08-16T06:03:55.843Z,19.50
2018-08-16T06:06:23.950Z,19.60
2018-08-16T06:08:52.059Z,19.60
2018-08-16T06:11:20.172Z,19.60
2018-08-16T06:13:48.287Z,19.70
2018-08-16T06:16:16.398Z,19.70
2018-08-16T06:18:44.579Z,19.80
2018-08-16T06:21:12.725Z,19.80
2018-08-16T06:23:40.819Z,20.00
2018-08-16T06:26:08.939Z,20.00
2018-08-16T06:28:37.043Z,20.10
2018-08-16T06:31:05.187Z,20.20
2018-08-16T06:33:33.313Z,20.30
2018-08-16T06:36:01.468Z,20.30
2018-08-16T06:38:29.575Z,20.40
2018-08-16T06:40:57.695Z,20.50
2018-08-16T06:43:25.799Z,20.50
2018-08-16T06:45:53.983Z,20.60
2018-08-16T06:48:22.127Z,20.70
2018-08-16T06:50:50.244Z,20.80
2018-08-16T06:53:18.388Z,20.80
2018-08-16T06:55:46.478Z,20.90
2018-08-16T06:58:14.633Z,21.00
2018-08-16T07:00:42.775Z,21.00
2018-08-16T07:03:11.007Z,21.10
2018-08-16T07:05:39.462Z,21.20
2018-08-16T07:08:07.691Z,21.20
2018-08-16T07:10:35.798Z,21.30
2018-08-16T07:13:03.995Z,21.40
2018-08-16T07:15:32.108Z,21.40
2018-08-16T07:18:00.255Z,21.50
2018-08-16T07:20:28.383Z,21.60
2018-08-16T07:22:56.507Z,21.60
2018-08-16T07:25:24.702Z,21.70
2018-08-16T07:27:53.161Z,21.70
2018-08-16T07:30:21.283Z,21.80
2018-08-16T07:32:49.406Z,21.80
2018-08-16T07:35:17.528Z,21.90
2018-08-16T07:37:45.685Z,22.00
2018-08-16T07:40:13.847Z,22.10
2018-08-16T07:42:41.982Z,22.10
2018-08-16T07:45:11.018Z,22.10
2018-08-16T07:47:39.459Z,22.20
2018-08-16T07:50:09.161Z,22.30
2018-08-16T07:52:37.282Z,22.40
2018-08-16T07:55:05.746Z,22.50
2018-08-16T07:57:34.219Z,22.50
2018-08-16T08:00:02.554Z,22.60
2018-08-16T08:02:30.731Z,22.60
2018-08-16T08:04:58.890Z,22.70
2018-08-16T08:07:26.995Z,22.70
2018-08-16T08:09:55.117Z,22.80
2018-08-16T08:12:23.259Z,22.90
2018-08-16T08:14:52.032Z,23.00
2018-08-16T08:17:20.228Z,23.00
2018-08-16T08:19:48.369Z,23.10
2018-08-16T08:22:16.509Z,23.10
2018-08-16T08:24:44.613Z,23.20
2018-08-16T08:27:13.234Z,23.30
2018-08-16T08:29:41.371Z,23.30
2018-08-16T08:32:09.481Z,23.40
2018-08-16T08:34:37.643Z,23.40
2018-08-16T08:37:17.183Z,23.40
2018-08-16T08:39:45.284Z,23.50
2018-08-16T08:42:13.431Z,23.50
2018-08-16T08:44:41.561Z,23.60
2018-08-16T08:47:09.688Z,23.70
2018-08-16T08:49:37.775Z,23.70
2018-08-16T08:52:05.903Z,23.80
2018-08-16T08:54:53.339Z,23.90
2018-08-16T08:57:33.598Z,24.00
2018-08-16T09:00:01.725Z,24.10
2018-08-16T09:02:29.829Z,24.00
2018-08-16T09:04:57.975Z,24.10
2018-08-16T09:07:32.768Z,24.20
2018-08-16T09:11:13.025Z,24.30
2018-08-16T09:13:54.101Z,24.40
2018-08-16T09:16:29.083Z,24.50
2018-08-16T09:18:57.500Z,24.60
2018-08-16T09:21:25.880Z,24.70
2018-08-16T09:23:53.968Z,24.80
2018-08-16T09:26:42.452Z,24.80
2018-08-16T09:30:24.122Z,24.90
2018-08-16T09:33:03.627Z,24.90
2018-08-16T09:35:31.785Z,25.00
2018-08-16T09:37:59.923Z,25.00
2018-08-16T09:40:28.044Z,24.90
2018-08-16T09:42:56.169Z,24.90
2018-08-16T09:45:35.610Z,25.00
2018-08-16T09:48:15.211Z,25.10
2018-08-16T09:50:43.387Z,25.20
2018-08-16T09:53:11.479Z,25.30
2018-08-16T09:55:39.605Z,25.30
2018-08-16T09:58:36.684Z,25.40
2018-08-16T10:01:10.189Z,25.40
2018-08-16T10:03:38.345Z,25.50
2018-08-16T10:06:06.488Z,25.50
2018-08-16T10:08:34.580Z,25.50
2018-08-16T10:11:03.316Z,25.50
2018-08-16T10:13:31.512Z,25.50
2018-08-16T10:15:59.588Z,25.50
2018-08-16T10:18:27.759Z,25.50
2018-08-16T10:20:55.915Z,25.50
2018-08-16T10:23:23.985Z,25.50
2018-08-16T10:25:52.092Z,25.40
2018-08-16T10:28:20.216Z,25.40
2018-08-16T10:30:48.321Z,25.40
2018-08-16T10:33:16.455Z,25.50
2018-08-16T10:35:44.589Z,25.70
2018-08-16T10:38:12.715Z,25.50
2018-08-16T10:40:40.837Z,25.50
2018-08-16T10:43:08.991Z,25.50
2018-08-16T10:45:37.091Z,25.40
2018-08-16T10:48:05.383Z,25.40
2018-08-16T10:50:33.537Z,25.30
2018-08-16T10:53:01.743Z,25.30
2018-08-16T10:55:30.035Z,25.20
2018-08-16T10:57:58.372Z,25.20
2018-08-16T11:00:26.469Z,25.10
2018-08-16T11:02:55.591Z,25.10
2018-08-16T11:05:23.698Z,25.10
2018-08-16T11:07:52.556Z,25.20
2018-08-16T11:10:20.698Z,25.10
2018-08-16T11:12:48.775Z,25.20
2018-08-16T11:15:16.899Z,25.20
2018-08-16T11:17:44.996Z,25.20
2018-08-16T11:20:13.133Z,25.20
2018-08-16T11:22:41.251Z,25.30
2018-08-16T11:25:09.382Z,25.30
2018-08-16T11:27:37.509Z,25.30
2018-08-16T11:30:05.833Z,25.30
2018-08-16T11:32:33.935Z,25.30
2018-08-16T11:35:02.092Z,25.30
2018-08-16T11:37:30.228Z,25.10
2018-08-16T11:39:58.351Z,25.10
2018-08-16T11:42:26.475Z,25.10
2018-08-16T11:44:54.576Z,25.20
2018-08-16T11:47:22.667Z,25.30
2018-08-16T11:49:50.768Z,25.30
2018-08-16T11:52:18.864Z,25.30
2018-08-16T11:54:47.759Z,25.40
2018-08-16T11:57:15.947Z,25.40
2018-08-16T11:59:44.032Z,25.40
2018-08-16T12:02:12.256Z,25.40
2018-08-16T12:04:40.699Z,25.40
2018-08-16T12:07:08.823Z,25.40
2018-08-16T12:09:37.011Z,25.40
2018-08-16T12:12:05.459Z,25.40
2018-08-16T12:14:33.566Z,25.40
2018-08-16T12:17:01.765Z,25.40
2018-08-16T12:19:29.884Z,25.40
2018-08-16T12:21:58.025Z,25.50
2018-08-16T12:24:26.207Z,25.50
2018-08-16T12:26:54.367Z,25.60
2018-08-16T12:29:23.357Z,25.60
2018-08-16T12:31:51.475Z,25.70
2018-08-16T12:34:19.595Z,25.70
2018-08-16T12:36:47.803Z,25.80
2018-08-16T12:39:15.925Z,25.80
2018-08-16T12:41:44.069Z,25.90
2018-08-16T12:44:12.201Z,25.90
2018-08-16T12:46:40.333Z,25.90
2018-08-16T12:49:08.415Z,26.00
2018-08-16T12:51:36.540Z,26.20
2018-08-16T12:54:04.690Z,26.30
2018-08-16T12:56:32.821Z,26.40
2018-08-16T12:59:00.952Z,26.50
2018-08-16T13:01:29.068Z,26.50
2018-08-16T13:03:57.187Z,26.50
2018-08-16T13:06:25.308Z,26.60
2018-08-16T13:08:53.392Z,26.60
2018-08-16T13:11:21.498Z,26.60
2018-08-16T13:13:49.631Z,26.60
2018-08-16T13:16:17.786Z,26.70
2018-08-16T13:18:46.113Z,26.70
2018-08-16T13:21:14.194Z,26.70
2018-08-16T13:23:42.309Z,26.70
2018-08-16T13:26:10.371Z,26.70
2018-08-16T13:28:38.483Z,26.70
2018-08-16T13:31:06.591Z,26.80
2018-08-16T13:33:34.689Z,26.90
2018-08-16T13:36:02.857Z,26.90
2018-08-16T13:38:30.948Z,26.90
2018-08-16T13:40:59.050Z,27.00
2018-08-16T13:43:27.166Z,27.10
2018-08-16T13:45:55.270Z,27.10
2018-08-16T13:48:23.423Z,27.10
2018-08-16T13:50:51.512Z,27.10
2018-08-16T13:53:19.646Z,27.10
2018-08-16T13:55:47.723Z,27.20
2018-08-16T13:58:15.811Z,27.20
2018-08-16T14:00:43.911Z,27.20
2018-08-16T14:03:12.008Z,27.20
2018-08-16T14:05:40.147Z,27.20
2018-08-16T14:08:08.243Z,27.20
2018-08-16T14:10:36.328Z,27.30
2018-08-16T14:13:04.416Z,27.30
2018-08-16T14:15:32.539Z,27.40
2018-08-16T14:18:00.653Z,27.40
2018-08-16T14:20:28.788Z,27.40
2018-08-16T14:22:56.871Z,27.50
2018-08-16T14:25:24.977Z,27.60
2018-08-16T14:27:53.079Z,27.60
2018-08-16T14:30:21.186Z,27.60
2018-08-16T14:32:49.327Z,27.70
2018-08-16T14:35:17.433Z,27.70
2018-08-16T14:37:45.557Z,27.80
2018-08-16T14:40:13.803Z,27.80
2018-08-16T14:42:41.894Z,27.80
2018-08-16T14:45:10.077Z,27.90
2018-08-16T14:47:38.172Z,28.00
2018-08-16T14:50:07.240Z,28.20
2018-08-16T14:52:35.475Z,28.40
2018-08-16T14:55:03.579Z,28.60
2018-08-16T14:57:31.711Z,28.80
2018-08-16T14:59:59.807Z,28.90
2018-08-16T15:02:27.915Z,29.10
2018-08-16T15:04:56.007Z,29.10
2018-08-16T15:07:24.155Z,29.20
2018-08-16T15:09:52.364Z,29.40
2018-08-16T15:12:20.493Z,29.60
2018-08-16T15:14:48.595Z,29.80
2018-08-16T15:17:16.736Z,30.10
2018-08-16T15:19:44.842Z,30.30
2018-08-16T15:22:12.947Z,30.50
2018-08-16T15:24:41.061Z,30.70
2018-08-16T15:27:09.174Z,30.90
2018-08-16T15:29:37.271Z,31.00
2018-08-16T15:32:05.417Z,31.10
2018-08-16T15:34:33.513Z,31.20
2018-08-16T15:37:01.614Z,31.10
2018-08-16T15:39:29.704Z,31.10
2018-08-16T15:41:57.820Z,31.20
2018-08-16T15:44:25.932Z,31.20
2018-08-16T15:46:54.083Z,31.20
2018-08-16T15:49:22.189Z,31.20
2018-08-16T15:51:50.283Z,31.30
2018-08-16T15:54:18.380Z,31.40
2018-08-16T15:56:46.494Z,31.50
2018-08-16T15:59:14.688Z,31.50
2018-08-16T16:01:42.690Z,31.50
2018-08-16T16:04:10.806Z,31.60
2018-08-16T16:06:38.910Z,31.70
2018-08-16T16:09:07.930Z,31.80
2018-08-16T16:11:36.065Z,31.90
2018-08-16T16:14:04.313Z,31.80
2018-08-16T16:16:32.398Z,31.90
2018-08-16T16:19:00.547Z,32.00
2018-08-16T16:21:28.643Z,32.20
2018-08-16T16:23:56.767Z,32.30
2018-08-16T16:26:24.877Z,32.40
2018-08-16T16:28:52.956Z,32.60
2018-08-16T16:31:21.139Z,32.70
2018-08-16T16:33:49.311Z,32.80
2018-08-16T16:36:17.459Z,32.80
2018-08-16T16:38:45.578Z,32.70
2018-08-16T16:41:13.713Z,32.60
2018-08-16T16:43:41.826Z,32.40
2018-08-16T16:46:09.968Z,32.10
2018-08-16T16:48:38.095Z,31.90
2018-08-16T16:51:06.309Z,31.70
2018-08-16T16:53:34.410Z,31.50
2018-08-16T16:56:02.499Z,31.30
2018-08-16T16:58:30.606Z,31.10
2018-08-16T17:00:58.720Z,31.00
2018-08-16T17:03:26.860Z,30.80
2018-08-16T17:05:54.950Z,30.60
2018-08-16T17:08:23.074Z,30.40
2018-08-16T17:10:51.227Z,30.30
2018-08-16T17:13:19.675Z,30.10
2018-08-16T17:15:47.785Z,30.00
2018-08-16T17:18:15.876Z,29.70
2018-08-16T17:20:43.983Z,29.50
2018-08-16T17:23:12.119Z,29.40
2018-08-16T17:25:40.224Z,29.30
2018-08-16T17:28:08.320Z,29.20
2018-08-16T17:30:36.417Z,29.20
2018-08-16T17:33:04.560Z,29.10
2018-08-16T17:35:32.739Z,29.00
2018-08-16T17:38:00.816Z,28.90
2018-08-16T17:40:28.911Z,28.80
2018-08-16T17:42:57.037Z,28.60
2018-08-16T17:45:25.136Z,28.50
2018-08-16T17:47:53.264Z,28.30
2018-08-16T17:50:21.373Z,27.90
2018-08-16T17:52:49.472Z,27.70
2018-08-16T17:55:17.851Z,27.50
2018-08-16T17:57:45.996Z,27.40
2018-08-16T18:00:14.071Z,27.20
2018-08-16T18:02:42.355Z,27.00
2018-08-16T18:05:10.507Z,26.90
2018-08-16T18:07:38.776Z,26.80
2018-08-16T18:10:07.796Z,26.60
2018-08-16T18:12:36.972Z,26.50
2018-08-16T18:15:06.794Z,26.40
2018-08-16T18:17:35.041Z,26.20
2018-08-16T18:20:05.744Z,26.10
2018-08-16T18:22:33.992Z,25.90
2018-08-16T18:25:02.075Z,25.80
2018-08-16T18:27:30.221Z,25.70
2018-08-16T18:29:58.415Z,25.60
2018-08-16T18:32:26.499Z,25.50
2018-08-16T18:34:54.623Z,25.40
2018-08-16T18:37:22.761Z,25.30
2018-08-16T18:39:50.841Z,25.20
2018-08-16T18:42:18.945Z,25.10
2018-08-16T18:44:47.033Z,25.00
2018-08-16T18:47:15.157Z,24.90
2018-08-16T18:49:43.279Z,24.80
2018-08-16T18:52:11.391Z,24.60
2018-08-16T18:54:39.505Z,24.50
2018-08-16T18:57:07.602Z,24.40
2018-08-16T18:59:35.870Z,24.40
2018-08-16T19:02:03.887Z,24.30
2018-08-16T19:04:31.994Z,24.30
2018-08-16T19:07:00.112Z,24.30
2018-08-16T19:09:28.234Z,24.20
2018-08-16T19:11:56.479Z,24.10
2018-08-16T19:14:24.702Z,24.00
2018-08-16T19:16:52.807Z,24.00
2018-08-16T19:19:20.929Z,23.90
2018-08-16T19:21:49.011Z,23.70
2018-08-16T19:24:17.102Z,23.60
2018-08-16T19:26:45.216Z,23.50
2018-08-16T19:29:13.325Z,23.50
2018-08-16T19:31:41.415Z,23.40
2018-08-16T19:34:09.491Z,23.40
2018-08-16T19:36:37.640Z,23.30
2018-08-16T19:39:08.544Z,23.30
2018-08-16T19:41:36.669Z,23.20
2018-08-16T19:44:04.882Z,23.10
2018-08-16T19:46:32.967Z,23.10
2018-08-16T19:49:01.075Z,23.00
2018-08-16T19:51:29.170Z,23.00
2018-08-16T19:53:57.266Z,22.90
2018-08-16T19:56:25.409Z,22.80
2018-08-16T19:58:53.511Z,22.80
2018-08-16T20:01:21.879Z,22.80
2018-08-16T20:03:49.807Z,22.80
2018-08-16T20:06:18.006Z,22.90
2018-08-16T20:08:46.135Z,22.90
2018-08-16T20:11:14.287Z,22.90
2018-08-16T20:13:42.439Z,22.80
2018-08-16T20:16:10.703Z,22.90
2018-08-16T20:18:38.843Z,22.90
2018-08-16T20:21:07.143Z,22.80
2018-08-16T20:23:35.251Z,22.80
2018-08-16T20:26:03.342Z,22.80
2018-08-16T20:28:31.443Z,22.80
2018-08-16T20:30:59.548Z,22.80
2018-08-16T20:33:27.641Z,22.80
2018-08-16T20:35:55.781Z,22.80
2018-08-16T20:38:23.894Z,22.80
2018-08-16T20:40:52.059Z,22.80
2018-08-16T20:43:20.170Z,22.80
2018-08-16T20:45:48.265Z,22.80
2018-08-16T20:48:16.391Z,22.80
2018-08-16T20:50:44.513Z,22.80
2018-08-16T20:53:12.660Z,22.80
2018-08-16T20:55:40.877Z,22.70
2018-08-16T20:58:08.968Z,22.80
2018-08-16T21:00:37.112Z,22.70
2018-08-16T21:03:05.264Z,22.70
2018-08-16T21:05:35.087Z,22.60
2018-08-16T21:08:04.101Z,22.60
2018-08-16T21:10:33.809Z,22.50
2018-08-16T21:13:02.867Z,22.50
2018-08-16T21:15:33.709Z,22.40
2018-08-16T21:18:02.412Z,22.40
2018-08-16T21:20:31.971Z,22.40
2018-08-16T21:23:00.223Z,22.30
2018-08-16T21:25:28.433Z,22.30
2018-08-16T21:27:56.877Z,22.30
2018-08-16T21:30:25.100Z,22.30
2018-08-16T21:32:53.352Z,22.20
2018-08-16T21:35:21.518Z,22.10
2018-08-16T21:37:49.819Z,22.10
2018-08-16T21:40:18.008Z,22.00
2018-08-16T21:42:46.255Z,22.10
2018-08-16T21:45:14.495Z,22.10
2018-08-16T21:47:42.726Z,22.10
2018-08-16T21:50:10.866Z,22.10
2018-08-16T21:52:38.987Z,22.00
2018-08-16T21:55:07.113Z,22.00
2018-08-16T21:57:35.463Z,22.00
2018-08-16T22:00:04.844Z,22.00
2018-08-16T22:02:34.887Z,22.00
2018-08-16T22:05:04.909Z,21.80
2018-08-16T22:08:08.112Z,21.80
2018-08-16T22:10:36.562Z,21.80
2018-08-16T22:13:05.320Z,21.80
2018-08-16T22:15:33.859Z,21.80
2018-08-16T22:18:02.456Z,21.80
2018-08-16T22:20:30.478Z,21.80
2018-08-16T22:22:58.598Z,21.80
2018-08-16T22:25:26.709Z,21.80
2018-08-16T22:27:54.849Z,21.80
2018-08-16T22:30:22.939Z,21.80
2018-08-16T22:32:51.040Z,21.80
2018-08-16T22:35:19.139Z,21.70
2018-08-16T22:37:47.256Z,21.60
2018-08-16T22:40:15.562Z,21.60
2018-08-16T22:42:43.692Z,21.60
2018-08-16T22:45:12.228Z,21.70
2018-08-16T22:47:40.341Z,21.70
2018-08-16T22:50:08.690Z,21.70
2018-08-16T22:52:37.253Z,21.70
2018-08-16T22:55:05.914Z,21.70
2018-08-16T22:57:34.071Z,21.70
2018-08-16T23:00:02.172Z,21.60
2018-08-16T23:02:30.314Z,21.60
2018-08-16T23:04:58.424Z,21.60
2018-08-16T23:07:26.546Z,21.60
2018-08-16T23:09:54.641Z,21.60
2018-08-16T23:12:22.735Z,21.60
2018-08-16T23:14:50.875Z,21.60
2018-08-16T23:17:19.041Z,21.50
2018-08-16T23:19:47.167Z,21.50
2018-08-16T23:22:15.296Z,21.50
2018-08-16T23:24:43.511Z,21.50
2018-08-16T23:27:11.645Z,21.50
2018-08-16T23:29:39.752Z,21.50
2018-08-16T23:32:08.027Z,21.50
2018-08-16T23:34:36.414Z,21.50
2018-08-16T23:37:04.712Z,21.50
2018-08-16T23:39:32.839Z,21.50
2018-08-16T23:42:00.938Z,21.50
2018-08-16T23:44:29.066Z,21.50
2018-08-16T23:46:57.147Z,21.50
2018-08-16T23:49:25.292Z,21.50
2018-08-16T23:51:53.503Z,21.50
2018-08-16T23:54:21.602Z,21.50
2018-08-16T23:56:49.726Z,21.50
2018-08-16T23:59:17.918Z,21.50
